createdAt,value
2019-06-08T00:00:47.028Z,0.00
2019-06-08T00:01:47.021Z,0.00
2019-06-08T00:02:47.030Z,0.00
2019-06-08T00:03:46.995Z,0.00
2019-06-08T00:04:46.994Z,0.00
2019-06-08T00:05:46.998Z,0.00
2019-06-08T00:06:46.957Z,0.00
2019-06-08T00:07:46.954Z,0.00
2019-06-08T00:08:46.938Z,0.00
2019-06-08T00:09:46.950Z,0.00
2019-06-08T00:10:46.925Z,0.00
2019-06-08T00:11:46.908Z,0.00
2019-06-08T00:12:46.897Z,0.00
2019-06-08T00:13:46.888Z,0.00
2019-06-08T00:14:46.878Z,0.00
2019-06-08T00:15:46.900Z,0.00
2019-06-08T00:16:46.859Z,0.00
2019-06-08T00:17:46.867Z,0.00
2019-06-08T00:18:46.834Z,0.00
2019-06-08T00:19:46.825Z,0.00
2019-06-08T00:20:46.809Z,0.00
2019-06-08T00:21:46.830Z,0.00
2019-06-08T00:22:46.801Z,0.00
2019-06-08T00:23:46.775Z,0.00
2019-06-08T00:24:46.765Z,0.00
2019-06-08T00:25:46.772Z,0.00
2019-06-08T00:26:46.740Z,0.00
2019-06-08T00:27:46.746Z,0.00
2019-06-08T00:28:46.718Z,0.00
2019-06-08T00:29:46.705Z,0.00
2019-06-08T00:30:46.705Z,0.00
2019-06-08T00:31:46.712Z,0.00
2019-06-08T00:32:46.681Z,0.00
2019-06-08T00:33:46.675Z,0.00
2019-06-08T00:34:46.652Z,0.00
2019-06-08T00:35:46.644Z,0.00
2019-06-08T00:36:46.632Z,0.00
2019-06-08T00:37:46.643Z,0.00
2019-06-08T00:38:46.623Z,0.00
2019-06-08T00:39:46.602Z,0.00
2019-06-08T00:40:46.596Z,0.00
2019-06-08T00:41:46.578Z,0.00
2019-06-08T00:42:46.587Z,0.00
2019-06-08T00:43:46.580Z,0.00
2019-06-08T00:44:46.549Z,0.00
2019-06-08T00:45:46.539Z,0.00
2019-06-08T00:46:46.539Z,0.00
2019-06-08T00:47:48.223Z,0.00
2019-06-08T00:48:46.520Z,0.00
2019-06-08T00:49:46.504Z,0.00
2019-06-08T00:50:46.497Z,0.00
2019-06-08T00:51:46.467Z,0.00
2019-06-08T00:52:46.456Z,0.00
2019-06-08T00:53:46.466Z,0.00
2019-06-08T00:54:46.436Z,0.00
2019-06-08T00:55:46.423Z,0.00
2019-06-08T00:56:46.417Z,0.00
2019-06-08T00:57:46.404Z,0.00
2019-06-08T00:58:46.389Z,0.00
2019-06-08T00:59:46.409Z,0.00
2019-06-08T01:00:48.955Z,0.00
2019-06-08T01:01:46.376Z,0.00
2019-06-08T01:02:46.349Z,0.00
2019-06-08T01:03:46.337Z,0.00
2019-06-08T01:04:46.327Z,0.00
2019-06-08T01:05:46.331Z,0.00
2019-06-08T01:06:46.296Z,0.00
2019-06-08T01:07:46.286Z,0.00
2019-06-08T01:08:46.295Z,0.00
2019-06-08T01:09:46.270Z,0.00
2019-06-08T01:10:46.252Z,0.00
2019-06-08T01:11:46.277Z,0.00
2019-06-08T01:12:46.230Z,0.00
2019-06-08T01:13:46.218Z,0.00
2019-06-08T01:14:46.213Z,0.00
2019-06-08T01:15:46.218Z,0.00
2019-06-08T01:16:46.189Z,0.00
2019-06-08T01:17:59.154Z,0.00
2019-06-08T01:18:47.158Z,0.00
2019-06-08T01:19:46.175Z,0.00
2019-06-08T01:20:46.171Z,0.00
2019-06-08T01:21:46.127Z,0.00
2019-06-08T01:22:46.123Z,0.00
2019-06-08T01:23:46.109Z,0.00
2019-06-08T01:24:46.111Z,0.00
2019-06-08T01:25:46.083Z,0.00
2019-06-08T01:26:46.251Z,0.00
2019-06-08T01:27:46.067Z,0.00
2019-06-08T01:28:46.051Z,0.00
2019-06-08T01:29:46.082Z,0.00
2019-06-08T01:30:46.027Z,0.00
2019-06-08T01:31:46.034Z,0.00
2019-06-08T01:32:46.004Z,0.00
2019-06-08T01:33:45.999Z,0.00
2019-06-08T01:34:46.013Z,0.00
2019-06-08T01:35:45.975Z,0.00
2019-06-08T01:36:45.981Z,0.00
2019-06-08T01:37:45.964Z,0.00
2019-06-08T01:38:45.936Z,0.00
2019-06-08T01:39:45.928Z,0.00
2019-06-08T01:40:45.920Z,0.00
2019-06-08T01:41:45.930Z,0.00
2019-06-08T01:42:45.896Z,0.00
2019-06-08T01:43:45.885Z,0.00
2019-06-08T01:44:45.872Z,0.00
2019-06-08T01:45:45.865Z,0.00
2019-06-08T01:46:45.888Z,0.00
2019-06-08T01:47:45.868Z,0.00
2019-06-08T01:48:45.834Z,0.00
2019-06-08T01:49:45.824Z,0.00
2019-06-08T01:50:45.808Z,0.00
2019-06-08T01:51:45.799Z,0.00
2019-06-08T01:52:45.810Z,0.00
2019-06-08T01:53:45.792Z,0.00
2019-06-08T01:54:45.771Z,0.00
2019-06-08T01:55:45.757Z,0.00
2019-06-08T01:56:45.746Z,0.00
2019-06-08T01:57:45.731Z,0.00
2019-06-08T01:58:45.726Z,0.00
2019-06-08T01:59:45.743Z,0.00
2019-06-08T02:00:45.714Z,0.00
2019-06-08T02:01:45.695Z,0.00
2019-06-08T02:02:45.682Z,0.00
2019-06-08T02:03:45.668Z,0.00
2019-06-08T02:04:45.659Z,0.00
2019-06-08T02:05:45.670Z,0.00
2019-06-08T02:06:45.657Z,0.00
2019-06-08T02:07:45.635Z,0.00
2019-06-08T02:08:45.615Z,0.00
2019-06-08T02:09:45.613Z,0.00
2019-06-08T02:10:45.614Z,0.00
2019-06-08T02:11:45.604Z,0.00
2019-06-08T02:12:45.573Z,0.00
2019-06-08T02:13:45.564Z,0.00
2019-06-08T02:14:45.547Z,0.00
2019-06-08T02:15:45.538Z,0.00
2019-06-08T02:16:45.552Z,0.00
2019-06-08T02:17:45.514Z,0.00
2019-06-08T02:18:50.863Z,0.00
2019-06-08T02:19:46.501Z,0.00
2019-06-08T02:20:45.486Z,0.00
2019-06-08T02:21:45.479Z,0.00
2019-06-08T02:22:45.629Z,0.00
2019-06-08T02:23:45.467Z,0.00
2019-06-08T02:24:45.442Z,0.00
2019-06-08T02:25:45.429Z,0.00
2019-06-08T02:26:45.467Z,0.00
2019-06-08T02:27:45.409Z,0.00
2019-06-08T02:28:45.399Z,0.00
2019-06-08T02:29:45.382Z,0.00
2019-06-08T02:30:45.397Z,0.00
2019-06-08T02:31:48.009Z,0.00
2019-06-08T02:32:45.373Z,0.00
2019-06-08T02:33:45.371Z,0.00
2019-06-08T02:34:45.329Z,0.00
2019-06-08T02:35:45.320Z,0.00
2019-06-08T02:36:45.310Z,0.00
2019-06-08T02:37:45.329Z,0.00
2019-06-08T02:38:45.294Z,0.00
2019-06-08T02:39:45.280Z,0.00
2019-06-08T02:40:45.269Z,0.00
2019-06-08T02:41:45.270Z,0.00
2019-06-08T02:42:45.241Z,0.00
2019-06-08T02:43:45.254Z,0.00
2019-06-08T02:44:45.226Z,0.00
2019-06-08T02:45:45.218Z,0.00
2019-06-08T02:46:45.227Z,0.00
2019-06-08T02:47:45.189Z,0.00
2019-06-08T02:49:02.425Z,0.00
2019-06-08T02:49:46.183Z,0.00
2019-06-08T02:50:45.163Z,0.00
2019-06-08T02:51:45.154Z,0.00
2019-06-08T02:52:45.140Z,0.00
2019-06-08T02:53:45.132Z,0.00
2019-06-08T02:54:45.142Z,0.00
2019-06-08T02:55:45.107Z,0.00
2019-06-08T02:56:45.113Z,0.00
2019-06-08T02:57:45.080Z,0.00
2019-06-08T02:58:45.075Z,0.00
2019-06-08T02:59:45.063Z,0.00
2019-06-08T03:00:45.070Z,0.00
2019-06-08T03:01:45.056Z,0.00
2019-06-08T03:02:45.036Z,0.00
2019-06-08T03:03:45.021Z,0.00
2019-06-08T03:04:45.056Z,0.00
2019-06-08T03:05:44.999Z,0.00
2019-06-08T03:06:45.008Z,0.00
2019-06-08T03:07:44.973Z,0.00
2019-06-08T03:08:44.972Z,0.00
2019-06-08T03:09:44.954Z,0.00
2019-06-08T03:10:44.954Z,0.00
2019-06-08T03:11:44.940Z,0.00
2019-06-08T03:12:44.946Z,0.00
2019-06-08T03:13:44.911Z,0.00
2019-06-08T03:14:44.906Z,0.00
2019-06-08T03:15:44.883Z,0.00
2019-06-08T03:16:44.881Z,0.00
2019-06-08T03:17:44.885Z,0.00
2019-06-08T03:18:44.873Z,5.62
2019-06-08T03:19:44.880Z,5.62
2019-06-08T03:20:44.829Z,5.62
2019-06-08T03:21:44.847Z,5.62
2019-06-08T03:22:44.845Z,5.62
2019-06-08T03:23:44.808Z,5.62
2019-06-08T03:24:44.795Z,5.62
2019-06-08T03:25:52.603Z,5.62
2019-06-08T03:26:45.766Z,5.62
2019-06-08T03:27:44.772Z,11.25
2019-06-08T03:28:44.743Z,11.25
2019-06-08T03:29:44.737Z,11.25
2019-06-08T03:30:53.310Z,11.25
2019-06-08T03:31:54.477Z,11.25
2019-06-08T03:32:54.058Z,11.25
2019-06-08T03:33:53.899Z,11.25
2019-06-08T03:34:54.649Z,11.25
2019-06-08T03:35:55.470Z,11.25
2019-06-08T03:36:54.732Z,11.25
2019-06-08T03:37:45.782Z,16.88
2019-06-08T03:38:44.895Z,16.88
2019-06-08T03:39:45.352Z,16.88
2019-06-08T03:40:45.270Z,16.88
2019-06-08T03:41:45.166Z,11.25
2019-06-08T03:42:44.597Z,16.88
2019-06-08T03:43:44.605Z,11.25
2019-06-08T03:44:44.915Z,11.25
2019-06-08T03:45:45.334Z,11.25
2019-06-08T03:46:46.017Z,11.25
2019-06-08T03:47:45.645Z,11.25
2019-06-08T03:48:46.448Z,5.62
2019-06-08T03:49:54.841Z,5.62
2019-06-08T03:50:46.316Z,11.25
2019-06-08T03:51:47.035Z,16.88
2019-06-08T03:52:46.139Z,16.88
2019-06-08T03:53:46.960Z,16.88
2019-06-08T03:54:46.909Z,16.88
2019-06-08T03:55:46.983Z,22.50
2019-06-08T03:56:46.137Z,22.50
2019-06-08T03:57:46.225Z,22.50
2019-06-08T03:58:46.021Z,28.12
2019-06-08T03:59:46.154Z,28.12
2019-06-08T04:00:44.515Z,33.75
2019-06-08T04:01:46.004Z,39.38
2019-06-08T04:02:46.626Z,33.75
2019-06-08T04:03:46.029Z,39.38
2019-06-08T04:04:46.082Z,45.00
2019-06-08T04:05:46.321Z,45.00
2019-06-08T04:06:45.743Z,39.38
2019-06-08T04:07:46.444Z,45.00
2019-06-08T04:08:46.789Z,45.00
2019-06-08T04:09:45.819Z,39.38
2019-06-08T04:10:46.709Z,33.75
2019-06-08T04:11:46.267Z,39.38
2019-06-08T04:12:46.134Z,45.00
2019-06-08T04:13:45.091Z,56.25
2019-06-08T04:14:44.949Z,50.62
2019-06-08T04:15:45.171Z,50.62
2019-06-08T04:16:45.012Z,45.00
2019-06-08T04:17:44.376Z,39.38
2019-06-08T04:18:46.208Z,33.75
2019-06-08T04:20:04.392Z,28.12
2019-06-08T04:20:46.446Z,28.12
2019-06-08T04:21:44.403Z,28.12
2019-06-08T04:22:45.182Z,33.75
2019-06-08T04:23:45.384Z,28.12
2019-06-08T04:24:44.710Z,28.12
2019-06-08T04:25:44.980Z,28.12
2019-06-08T04:26:45.508Z,28.12
2019-06-08T04:27:44.785Z,33.75
2019-06-08T04:28:44.709Z,39.38
2019-06-08T04:29:45.908Z,28.12
2019-06-08T04:30:45.372Z,22.50
2019-06-08T04:31:45.925Z,28.12
2019-06-08T04:32:44.970Z,33.75
2019-06-08T04:33:44.344Z,28.12
2019-06-08T04:34:45.516Z,33.75
2019-06-08T04:35:45.183Z,39.38
2019-06-08T04:36:45.856Z,50.62
2019-06-08T04:37:44.850Z,56.25
2019-06-08T04:38:45.698Z,56.25
2019-06-08T04:39:44.493Z,84.38
2019-06-08T04:40:45.733Z,78.75
2019-06-08T04:41:45.017Z,90.00
2019-06-08T04:42:46.015Z,95.62
2019-06-08T04:43:45.002Z,236.25
2019-06-08T04:44:44.620Z,286.88
2019-06-08T04:45:45.839Z,826.88
2019-06-08T04:46:45.496Z,174.38
2019-06-08T04:47:46.127Z,247.50
2019-06-08T04:48:45.297Z,787.50
2019-06-08T04:49:44.915Z,123.75
2019-06-08T04:50:45.509Z,174.38
2019-06-08T04:51:45.241Z,253.12
2019-06-08T04:52:44.966Z,382.50
2019-06-08T04:53:45.555Z,129.38
2019-06-08T04:54:45.105Z,146.25
2019-06-08T04:55:44.997Z,180.00
2019-06-08T04:56:44.873Z,146.25
2019-06-08T04:57:45.435Z,135.00
2019-06-08T04:58:46.279Z,303.75
2019-06-08T04:59:45.388Z,247.50
2019-06-08T05:00:45.725Z,450.00
2019-06-08T05:01:45.084Z,202.50
2019-06-08T05:02:44.752Z,230.62
2019-06-08T05:03:45.519Z,180.00
2019-06-08T05:04:45.231Z,286.88
2019-06-08T05:05:45.181Z,202.50
2019-06-08T05:06:45.094Z,185.62
2019-06-08T05:07:45.746Z,168.75
2019-06-08T05:08:45.136Z,264.38
2019-06-08T05:09:45.075Z,219.38
2019-06-08T05:10:45.170Z,303.75
2019-06-08T05:11:45.204Z,253.12
2019-06-08T05:12:45.415Z,258.75
2019-06-08T05:13:45.256Z,241.88
2019-06-08T05:14:45.034Z,331.88
2019-06-08T05:15:45.324Z,326.25
2019-06-08T05:16:43.568Z,230.62
2019-06-08T05:17:43.592Z,270.00
2019-06-08T05:18:43.549Z,393.75
2019-06-08T05:19:43.601Z,275.62
2019-06-08T05:20:46.059Z,410.62
2019-06-08T05:21:43.594Z,326.25
2019-06-08T05:22:43.712Z,416.25
2019-06-08T05:23:43.502Z,331.88
2019-06-08T05:24:43.575Z,433.12
2019-06-08T05:25:43.471Z,399.38
2019-06-08T05:26:43.661Z,371.25
2019-06-08T05:27:43.481Z,478.12
2019-06-08T05:28:43.433Z,438.75
2019-06-08T05:29:43.448Z,500.62
2019-06-08T05:30:43.417Z,405.00
2019-06-08T05:31:43.570Z,382.50
2019-06-08T05:32:43.618Z,376.88
2019-06-08T05:33:43.475Z,365.62
2019-06-08T05:34:43.464Z,365.62
2019-06-08T05:35:43.493Z,354.38
2019-06-08T05:36:43.448Z,298.12
2019-06-08T05:37:43.734Z,326.25
2019-06-08T05:38:43.489Z,241.88
2019-06-08T05:39:43.589Z,241.88
2019-06-08T05:40:43.589Z,236.25
2019-06-08T05:41:43.486Z,225.00
2019-06-08T05:42:44.213Z,196.88
2019-06-08T05:43:43.605Z,230.62
2019-06-08T05:44:43.654Z,258.75
2019-06-08T05:45:43.561Z,275.62
2019-06-08T05:46:43.721Z,292.50
2019-06-08T05:47:43.923Z,286.88
2019-06-08T05:48:43.857Z,286.88
2019-06-08T05:49:43.712Z,309.38
2019-06-08T05:50:58.773Z,315.00
2019-06-08T05:51:44.185Z,320.62
2019-06-08T05:52:44.156Z,337.50
2019-06-08T05:53:43.821Z,348.75
2019-06-08T05:54:43.797Z,326.25
2019-06-08T05:55:43.861Z,315.00
2019-06-08T05:56:43.862Z,320.62
2019-06-08T05:57:44.210Z,326.25
2019-06-08T05:58:43.958Z,337.50
2019-06-08T05:59:44.041Z,360.00
2019-06-08T06:00:44.196Z,382.50
2019-06-08T06:01:44.527Z,376.88
2019-06-08T06:02:43.063Z,382.50
2019-06-08T06:03:44.492Z,410.62
2019-06-08T06:04:44.316Z,399.38
2019-06-08T06:05:43.030Z,421.88
2019-06-08T06:06:43.024Z,489.38
2019-06-08T06:07:43.011Z,489.38
2019-06-08T06:08:43.012Z,450.00
2019-06-08T06:09:43.045Z,444.38
2019-06-08T06:10:42.977Z,399.38
2019-06-08T06:11:42.966Z,399.38
2019-06-08T06:12:43.038Z,393.75
2019-06-08T06:13:42.987Z,376.88
2019-06-08T06:14:42.937Z,365.62
2019-06-08T06:15:43.045Z,405.00
2019-06-08T06:16:43.157Z,562.50
2019-06-08T06:17:43.986Z,618.75
2019-06-08T06:18:42.968Z,613.12
2019-06-08T06:19:42.967Z,579.38
2019-06-08T06:20:43.372Z,658.12
2019-06-08T06:21:43.059Z,765.00
2019-06-08T06:22:43.980Z,635.62
2019-06-08T06:23:43.199Z,489.38
2019-06-08T06:24:43.737Z,472.50
2019-06-08T06:25:43.389Z,433.12
2019-06-08T06:26:43.246Z,489.38
2019-06-08T06:27:43.423Z,506.25
2019-06-08T06:28:43.308Z,545.62
2019-06-08T06:29:43.507Z,545.62
2019-06-08T06:30:44.160Z,607.50
2019-06-08T06:31:43.735Z,579.38
2019-06-08T06:32:43.826Z,545.62
2019-06-08T06:33:43.820Z,556.88
2019-06-08T06:34:43.875Z,545.62
2019-06-08T06:35:43.762Z,528.75
2019-06-08T06:36:43.868Z,528.75
2019-06-08T06:37:43.758Z,438.75
2019-06-08T06:38:43.814Z,410.62
2019-06-08T06:39:43.955Z,444.38
2019-06-08T06:40:43.906Z,399.38
2019-06-08T06:41:43.963Z,438.75
2019-06-08T06:42:43.772Z,382.50
2019-06-08T06:43:43.863Z,286.88
2019-06-08T06:44:45.214Z,360.00
2019-06-08T06:45:43.783Z,427.50
2019-06-08T06:46:43.896Z,388.12
2019-06-08T06:47:44.095Z,354.38
2019-06-08T06:48:42.574Z,337.50
2019-06-08T06:49:42.573Z,315.00
2019-06-08T06:50:42.534Z,371.25
2019-06-08T06:51:42.523Z,286.88
2019-06-08T06:52:42.814Z,292.50
2019-06-08T06:53:42.832Z,472.50
2019-06-08T06:54:42.824Z,517.50
2019-06-08T06:55:42.851Z,472.50
2019-06-08T06:56:43.105Z,320.62
2019-06-08T06:57:43.518Z,388.12
2019-06-08T06:58:43.083Z,405.00
2019-06-08T06:59:43.308Z,416.25
2019-06-08T07:00:43.256Z,534.38
2019-06-08T07:01:43.434Z,506.25
2019-06-08T07:02:43.550Z,489.38
2019-06-08T07:03:42.390Z,354.38
2019-06-08T07:04:43.658Z,478.12
2019-06-08T07:05:43.672Z,365.62
2019-06-08T07:06:42.363Z,343.12
2019-06-08T07:07:42.354Z,478.12
2019-06-08T07:08:42.345Z,444.38
2019-06-08T07:09:42.418Z,489.38
2019-06-08T07:10:42.312Z,540.00
2019-06-08T07:11:42.303Z,573.75
2019-06-08T07:12:42.332Z,416.25
2019-06-08T07:13:42.283Z,438.75
2019-06-08T07:14:42.293Z,410.62
2019-06-08T07:15:42.267Z,461.25
2019-06-08T07:16:42.248Z,646.88
2019-06-08T07:17:42.239Z,607.50
2019-06-08T07:18:42.229Z,590.62
2019-06-08T07:19:42.254Z,551.25
2019-06-08T07:20:42.211Z,635.62
2019-06-08T07:21:42.344Z,635.62
2019-06-08T07:22:42.184Z,641.25
2019-06-08T07:23:42.170Z,624.38
2019-06-08T07:24:42.186Z,450.00
2019-06-08T07:25:42.178Z,613.12
2019-06-08T07:26:42.140Z,928.12
2019-06-08T07:27:42.128Z,855.00
2019-06-08T07:28:42.115Z,708.75
2019-06-08T07:29:42.134Z,551.25
2019-06-08T07:30:42.098Z,601.88
2019-06-08T07:31:42.093Z,838.12
2019-06-08T07:32:42.074Z,1057.50
2019-06-08T07:33:42.060Z,1715.62
2019-06-08T07:34:42.076Z,2328.75
2019-06-08T07:35:42.063Z,2075.62
2019-06-08T07:36:42.074Z,1873.12
2019-06-08T07:37:42.025Z,2160.00
2019-06-08T07:38:42.056Z,2255.62
2019-06-08T07:39:42.020Z,2728.12
2019-06-08T07:40:41.985Z,860.62
2019-06-08T07:41:41.979Z,1833.75
2019-06-08T07:42:41.969Z,1355.62
2019-06-08T07:43:41.972Z,781.88
2019-06-08T07:44:41.955Z,1051.88
2019-06-08T07:45:41.956Z,1451.25
2019-06-08T07:46:41.930Z,3256.88
2019-06-08T07:47:41.912Z,3009.38
2019-06-08T07:48:41.925Z,3054.38
2019-06-08T07:49:41.912Z,2958.75
2019-06-08T07:50:41.897Z,2919.38
2019-06-08T07:51:57.308Z,2981.25
2019-06-08T07:52:42.857Z,3150.00
2019-06-08T07:53:41.850Z,3358.12
2019-06-08T07:54:41.843Z,1991.25
2019-06-08T07:55:45.155Z,3549.38
2019-06-08T07:56:41.827Z,3240.00
2019-06-08T07:57:41.813Z,3031.88
2019-06-08T07:58:41.818Z,2981.25
2019-06-08T07:59:41.789Z,3110.62
2019-06-08T08:00:41.805Z,3217.50
2019-06-08T08:01:41.776Z,3161.25
2019-06-08T08:02:41.777Z,3150.00
2019-06-08T08:03:41.771Z,3183.75
2019-06-08T08:04:41.742Z,3296.25
2019-06-08T08:05:41.755Z,3380.62
2019-06-08T08:06:41.733Z,3290.62
2019-06-08T08:07:41.723Z,3240.00
2019-06-08T08:08:41.777Z,495.00
2019-06-08T08:09:41.704Z,1350.00
2019-06-08T08:10:41.864Z,517.50
2019-06-08T08:11:41.687Z,3262.50
2019-06-08T08:12:41.669Z,3155.62
2019-06-08T08:13:41.663Z,3116.25
2019-06-08T08:14:41.653Z,3110.62
2019-06-08T08:15:41.651Z,3240.00
2019-06-08T08:16:41.664Z,3324.38
2019-06-08T08:17:41.648Z,3166.88
2019-06-08T08:18:41.624Z,2165.62
2019-06-08T08:19:41.604Z,3178.12
2019-06-08T08:20:41.599Z,1659.38
2019-06-08T08:21:41.625Z,3189.38
2019-06-08T08:22:41.576Z,3206.25
2019-06-08T08:23:41.583Z,3346.88
2019-06-08T08:24:41.554Z,798.75
2019-06-08T08:25:41.546Z,556.88
2019-06-08T08:26:41.572Z,3144.38
2019-06-08T08:27:41.536Z,2261.25
2019-06-08T08:28:41.536Z,1035.00
2019-06-08T08:29:41.514Z,2469.38
2019-06-08T08:30:41.500Z,2835.00
2019-06-08T08:31:41.534Z,686.25
2019-06-08T08:32:41.534Z,3110.62
2019-06-08T08:33:41.473Z,3183.75
2019-06-08T08:34:41.490Z,3431.25
2019-06-08T08:35:41.461Z,1091.25
2019-06-08T08:36:41.447Z,697.50
2019-06-08T08:37:41.438Z,1226.25
2019-06-08T08:38:41.432Z,3178.12
2019-06-08T08:39:41.447Z,573.75
2019-06-08T08:40:41.423Z,2846.25
2019-06-08T08:41:41.441Z,697.50
2019-06-08T08:42:41.393Z,3054.38
2019-06-08T08:43:41.376Z,2896.88
2019-06-08T08:44:41.367Z,2863.12
2019-06-08T08:45:41.365Z,2947.50
2019-06-08T08:46:41.393Z,2857.50
2019-06-08T08:47:41.352Z,2851.88
2019-06-08T08:48:41.337Z,2941.88
2019-06-08T08:49:41.326Z,2947.50
2019-06-08T08:50:41.316Z,2964.38
2019-06-08T08:51:41.344Z,2902.50
2019-06-08T08:52:41.299Z,2896.88
2019-06-08T08:53:41.296Z,2958.75
2019-06-08T08:54:42.836Z,821.25
2019-06-08T08:55:41.264Z,2812.50
2019-06-08T08:56:42.812Z,1884.38
2019-06-08T08:57:41.720Z,770.62
2019-06-08T08:58:41.264Z,686.25
2019-06-08T08:59:41.236Z,680.62
2019-06-08T09:00:41.375Z,540.00
2019-06-08T09:01:41.238Z,489.38
2019-06-08T09:02:41.202Z,545.62
2019-06-08T09:03:41.190Z,466.88
2019-06-08T09:04:41.193Z,410.62
2019-06-08T09:05:41.175Z,523.12
2019-06-08T09:06:41.179Z,607.50
2019-06-08T09:07:41.192Z,613.12
2019-06-08T09:08:41.150Z,545.62
2019-06-08T09:09:41.131Z,517.50
2019-06-08T09:10:41.128Z,585.00
2019-06-08T09:11:41.498Z,1755.00
2019-06-08T09:12:41.107Z,675.00
2019-06-08T09:13:41.110Z,601.88
2019-06-08T09:14:41.534Z,714.38
2019-06-08T09:15:41.069Z,2514.38
2019-06-08T09:16:41.078Z,753.75
2019-06-08T09:17:41.220Z,630.00
2019-06-08T09:18:41.059Z,579.38
2019-06-08T09:19:41.029Z,1552.50
2019-06-08T09:20:41.044Z,2840.62
2019-06-08T09:21:41.009Z,2919.38
2019-06-08T09:22:52.935Z,2958.75
2019-06-08T09:23:41.995Z,3043.12
2019-06-08T09:24:40.980Z,2874.38
2019-06-08T09:25:40.965Z,2936.25
2019-06-08T09:26:40.956Z,933.75
2019-06-08T09:27:40.988Z,2784.38
2019-06-08T09:28:40.932Z,2041.88
2019-06-08T09:29:40.923Z,703.12
2019-06-08T09:30:40.929Z,680.62
2019-06-08T09:31:40.907Z,1265.62
2019-06-08T09:32:40.915Z,652.50
2019-06-08T09:33:40.898Z,973.12
2019-06-08T09:34:40.889Z,697.50
2019-06-08T09:35:40.862Z,3065.62
2019-06-08T09:36:40.957Z,1175.62
2019-06-08T09:37:40.865Z,3082.50
2019-06-08T09:38:40.831Z,759.38
2019-06-08T09:39:40.842Z,2373.75
2019-06-08T09:40:40.988Z,556.88
2019-06-08T09:41:40.834Z,590.62
2019-06-08T09:42:40.801Z,826.88
2019-06-08T09:43:40.788Z,2795.62
2019-06-08T09:44:40.796Z,781.88
2019-06-08T09:45:40.775Z,618.75
2019-06-08T09:46:40.754Z,2328.75
2019-06-08T09:47:40.741Z,2570.62
2019-06-08T09:48:40.725Z,708.75
2019-06-08T09:49:40.718Z,624.38
2019-06-08T09:50:40.893Z,1884.38
2019-06-08T09:51:40.703Z,2806.88
2019-06-08T09:52:41.420Z,708.75
2019-06-08T09:53:41.838Z,2694.38
2019-06-08T09:54:40.666Z,2705.62
2019-06-08T09:55:41.445Z,956.25
2019-06-08T09:56:40.658Z,2503.12
2019-06-08T09:57:40.637Z,2407.50
2019-06-08T09:58:40.630Z,2553.75
2019-06-08T09:59:40.616Z,2548.12
2019-06-08T10:00:40.783Z,2778.75
2019-06-08T10:01:40.602Z,2677.50
2019-06-08T10:02:40.610Z,2435.62
2019-06-08T10:03:40.583Z,2503.12
2019-06-08T10:04:40.589Z,2598.75
2019-06-08T10:05:40.562Z,2435.62
2019-06-08T10:06:41.060Z,2250.00
2019-06-08T10:07:40.553Z,2250.00
2019-06-08T10:08:40.531Z,427.50
2019-06-08T10:09:43.238Z,2233.12
2019-06-08T10:10:40.712Z,2272.50
2019-06-08T10:11:40.514Z,883.12
2019-06-08T10:12:40.931Z,776.25
2019-06-08T10:13:43.268Z,1771.88
2019-06-08T10:14:40.502Z,2497.50
2019-06-08T10:15:40.481Z,2373.75
2019-06-08T10:16:40.491Z,1248.75
2019-06-08T10:17:40.461Z,1215.00
2019-06-08T10:18:40.468Z,1760.62
2019-06-08T10:19:40.418Z,894.38
2019-06-08T10:20:40.455Z,551.25
2019-06-08T10:21:43.010Z,450.00
2019-06-08T10:22:40.394Z,534.38
2019-06-08T10:23:41.818Z,540.00
2019-06-08T10:24:41.494Z,427.50
2019-06-08T10:25:40.359Z,331.88
2019-06-08T10:26:40.430Z,900.00
2019-06-08T10:27:40.348Z,365.62
2019-06-08T10:28:40.351Z,376.88
2019-06-08T10:29:40.318Z,427.50
2019-06-08T10:30:40.305Z,736.88
2019-06-08T10:31:43.594Z,843.75
2019-06-08T10:32:40.321Z,765.00
2019-06-08T10:33:40.940Z,781.88
2019-06-08T10:34:40.267Z,579.38
2019-06-08T10:35:40.265Z,478.12
2019-06-08T10:36:40.249Z,478.12
2019-06-08T10:37:40.279Z,506.25
2019-06-08T10:38:41.264Z,573.75
2019-06-08T10:39:40.214Z,675.00
2019-06-08T10:40:40.198Z,585.00
2019-06-08T10:41:40.187Z,478.12
2019-06-08T10:42:40.400Z,590.62
2019-06-08T10:43:40.175Z,630.00
2019-06-08T10:44:40.156Z,601.88
2019-06-08T10:45:40.144Z,500.62
2019-06-08T10:46:40.698Z,472.50
2019-06-08T10:47:40.193Z,545.62
2019-06-08T10:48:40.141Z,517.50
2019-06-08T10:49:40.117Z,472.50
2019-06-08T10:50:40.101Z,433.12
2019-06-08T10:51:41.078Z,551.25
2019-06-08T10:52:40.064Z,534.38
2019-06-08T10:53:49.144Z,562.50
2019-06-08T10:54:41.064Z,635.62
2019-06-08T10:55:40.815Z,641.25
2019-06-08T10:56:40.042Z,601.88
2019-06-08T10:57:40.037Z,613.12
2019-06-08T10:58:40.013Z,596.25
2019-06-08T10:59:40.413Z,607.50
2019-06-08T11:00:40.036Z,635.62
2019-06-08T11:01:39.984Z,669.38
2019-06-08T11:02:40.735Z,624.38
2019-06-08T11:03:39.942Z,585.00
2019-06-08T11:04:43.176Z,607.50
2019-06-08T11:05:39.942Z,596.25
2019-06-08T11:06:40.330Z,506.25
2019-06-08T11:07:39.925Z,523.12
2019-06-08T11:08:39.893Z,523.12
2019-06-08T11:09:39.890Z,568.12
2019-06-08T11:10:39.886Z,523.12
2019-06-08T11:11:39.856Z,444.38
2019-06-08T11:12:39.845Z,450.00
2019-06-08T11:13:39.837Z,523.12
2019-06-08T11:14:40.810Z,511.88
2019-06-08T11:15:39.844Z,528.75
2019-06-08T11:16:39.819Z,573.75
2019-06-08T11:17:39.812Z,517.50
2019-06-08T11:18:39.782Z,433.12
2019-06-08T11:19:39.799Z,371.25
2019-06-08T11:20:39.774Z,399.38
2019-06-08T11:21:39.751Z,483.75
2019-06-08T11:22:39.745Z,472.50
2019-06-08T11:23:41.652Z,472.50
2019-06-08T11:24:39.745Z,455.62
2019-06-08T11:25:39.725Z,450.00
2019-06-08T11:26:40.339Z,461.25
2019-06-08T11:27:39.695Z,483.75
2019-06-08T11:28:39.677Z,528.75
2019-06-08T11:29:39.664Z,483.75
2019-06-08T11:30:39.671Z,506.25
2019-06-08T11:31:39.640Z,517.50
2019-06-08T11:32:39.635Z,523.12
2019-06-08T11:33:39.625Z,545.62
2019-06-08T11:34:39.625Z,500.62
2019-06-08T11:35:39.617Z,455.62
2019-06-08T11:36:39.714Z,399.38
2019-06-08T11:37:40.937Z,382.50
2019-06-08T11:38:39.596Z,405.00
2019-06-08T11:39:39.567Z,433.12
2019-06-08T11:40:39.569Z,489.38
2019-06-08T11:41:39.562Z,489.38
2019-06-08T11:42:39.518Z,511.88
2019-06-08T11:43:39.511Z,500.62
2019-06-08T11:44:39.682Z,495.00
2019-06-08T11:45:39.488Z,528.75
2019-06-08T11:46:42.567Z,506.25
2019-06-08T11:47:39.537Z,506.25
2019-06-08T11:48:41.451Z,562.50
2019-06-08T11:49:39.472Z,568.12
2019-06-08T11:50:42.176Z,545.62
2019-06-08T11:51:39.427Z,416.25
2019-06-08T11:52:39.423Z,348.75
2019-06-08T11:53:39.433Z,337.50
2019-06-08T11:54:41.005Z,315.00
2019-06-08T11:55:39.406Z,298.12
2019-06-08T11:56:40.292Z,326.25
2019-06-08T11:57:40.470Z,405.00
2019-06-08T11:58:39.352Z,405.00
2019-06-08T11:59:39.337Z,393.75
2019-06-08T12:00:39.330Z,421.88
2019-06-08T12:01:39.346Z,438.75
2019-06-08T12:02:41.292Z,461.25
2019-06-08T12:03:39.319Z,461.25
2019-06-08T12:04:39.283Z,421.88
2019-06-08T12:05:39.273Z,354.38
2019-06-08T12:06:39.254Z,371.25
2019-06-08T12:07:39.262Z,371.25
2019-06-08T12:08:39.253Z,315.00
2019-06-08T12:09:39.227Z,320.62
2019-06-08T12:10:41.118Z,320.62
2019-06-08T12:11:39.211Z,281.25
2019-06-08T12:12:39.236Z,286.88
2019-06-08T12:13:39.191Z,303.75
2019-06-08T12:14:40.488Z,281.25
2019-06-08T12:15:39.159Z,281.25
2019-06-08T12:16:39.149Z,320.62
2019-06-08T12:17:39.134Z,427.50
2019-06-08T12:18:40.342Z,371.25
2019-06-08T12:19:39.137Z,343.12
2019-06-08T12:20:39.125Z,298.12
2019-06-08T12:21:39.091Z,354.38
2019-06-08T12:22:40.261Z,450.00
2019-06-08T12:23:39.079Z,405.00
2019-06-08T12:24:42.443Z,399.38
2019-06-08T12:25:39.057Z,444.38
2019-06-08T12:26:39.068Z,489.38
2019-06-08T12:27:40.099Z,483.75
2019-06-08T12:28:39.024Z,405.00
2019-06-08T12:29:39.006Z,382.50
2019-06-08T12:30:39.006Z,427.50
2019-06-08T12:31:38.991Z,427.50
2019-06-08T12:32:39.003Z,360.00
2019-06-08T12:33:39.278Z,348.75
2019-06-08T12:34:38.974Z,371.25
2019-06-08T12:35:38.967Z,405.00
2019-06-08T12:36:38.937Z,365.62
2019-06-08T12:37:38.962Z,337.50
2019-06-08T12:38:38.915Z,393.75
2019-06-08T12:39:38.923Z,461.25
2019-06-08T12:40:41.090Z,455.62